Time;durP1;ratioP1;P1;durP2;ratioP2;P2;SDS_P1;SDS_P2;PMS_P1;PMS_P2;Temp;Humidity;BMP_temperature;BMP_pressure;BME280_temperature;BME280_humidity;BME280_pressure;Samples;Min_cycle;Max_cycle;Signal;HPM_P1;HPM_P2
2022/10/07 00:01:25;;;;;;;5.50;2.70;;;;;;;14.60;53.30;102391.69;5066636;28;20800;-67
2022/10/07 00:03:50;;;;;;;4.18;2.42;;;;;;;14.56;53.81;102380.44;5066069;28;20467;-66
2022/10/07 00:07:40;;;;;;;4.00;2.60;;;;;;;14.57;53.46;102390.13;5093395;27;20405;-67
2022/10/07 00:11:45;;;;;;;4.50;2.47;;;;;;;14.51;53.68;102380.94;5073381;27;20429;-66
2022/10/07 00:19:18;;;;;;;4.43;2.97;;;;;;;14.46;53.90;102369.03;5044975;28;20411;-65
2022/10/07 00:24:27;;;;;;;5.63;3.10;;;;;;;14.42;53.77;102378.34;5084251;27;20461;-65
2022/10/07 00:26:52;;;;;;;3.47;2.55;;;;;;;14.42;53.56;102373.84;5066571;28;20396;-66
2022/10/07 00:29:18;;;;;;;4.67;2.60;;;;;;;14.40;53.83;102366.97;5057791;28;20388;-66
2022/10/07 00:31:43;;;;;;;2.95;2.65;;;;;;;14.40;53.86;102378.47;5061400;28;20455;-66
2022/10/07 00:34:10;;;;;;;5.20;3.00;;;;;;;14.38;53.82;102377.81;5065151;28;20380;-66
2022/10/07 00:36:36;;;;;;;5.07;2.90;;;;;;;14.38;53.96;102383.13;5064525;28;20399;-66
2022/10/07 00:39:08;;;;;;;4.05;2.78;;;;;;;14.33;54.02;102380.09;5066579;28;20838;-66
2022/10/07 00:41:37;;;;;;;4.00;2.72;;;;;;;14.28;54.15;102377.06;5066446;28;20391;-66
2022/10/07 00:44:30;;;;;;;4.40;2.70;;;;;;;14.23;53.86;102372.19;5059658;28;20414;-66
2022/10/07 00:47:02;;;;;;;3.58;2.40;;;;;;;14.22;54.20;102375.81;5065952;28;20421;-68
2022/10/07 00:49:29;;;;;;;6.40;2.50;;;;;;;14.19;54.01;102380.63;5066088;28;20372;-66
2022/10/07 00:52:59;;;;;;;5.80;3.03;;;;;;;14.18;54.23;102373.63;5063351;27;2029527;-65
2022/10/07 00:55:43;;;;;;;3.97;2.80;;;;;;;14.13;54.27;102374.09;5087914;27;20407;-65
2022/10/07 01:00:17;;;;;;;4.00;2.92;;;;;;;14.10;53.95;102369.91;5067646;27;20836;-66
2022/10/07 01:02:42;;;;;;;6.15;3.72;;;;;;;14.11;54.09;102370.72;5066948;28;20885;-67
2022/10/07 01:05:13;;;;;;;6.33;4.20;;;;;;;14.10;53.93;102372.56;5066461;28;20391;-67
2022/10/07 01:07:39;;;;;;;3.58;2.88;;;;;;;14.08;53.93;102374.56;5066863;28;20478;-66
2022/10/07 01:10:06;;;;;;;5.25;2.85;;;;;;;14.07;53.79;102375.53;5066724;28;20761;-66
2022/10/07 01:12:40;;;;;;;4.07;2.58;;;;;;;14.01;53.89;102364.63;5066451;28;20774;-66
2022/10/07 01:15:32;;;;;;;4.43;2.17;;;;;;;13.91;53.67;102380.72;5066084;28;20808;-65
2022/10/07 01:20:56;;;;;;;4.30;2.70;;;;;;;13.87;53.79;102374.84;5066960;27;20416;-65
2022/10/07 01:24:10;;;;;;;4.45;2.88;;;;;;;13.87;53.82;102374.00;5054295;28;20933;-66
2022/10/07 01:27:12;;;;;;;4.13;2.75;;;;;;;13.85;53.79;102371.50;5080888;27;20910;-66
2022/10/07 01:29:54;;;;;;;3.00;2.60;;;;;;;13.84;53.92;102375.13;5057380;28;20415;-66
2022/10/07 01:34:38;;;;;;;3.53;2.75;;;;;;;13.80;53.66;102371.09;5076663;27;20412;-65
2022/10/07 01:38:25;;;;;;;5.55;2.90;;;;;;;13.81;53.56;102380.78;5081602;27;20461;-65
2022/10/07 01:41:03;;;;;;;4.18;2.80;;;;;;;13.77;53.69;102380.25;5066339;28;20842;-65
2022/10/07 01:43:31;;;;;;;4.30;2.90;;;;;;;13.73;54.20;102380.69;5066394;28;20442;-66
2022/10/07 01:46:36;;;;;;;3.83;3.00;;;;;;;13.75;54.05;102386.69;5093365;27;20703;-66
2022/10/07 01:50:13;;;;;;;3.13;2.83;;;;;;;13.73;54.04;102386.84;5091519;27;20452;-65
2022/10/07 01:52:58;;;;;;;5.85;3.08;;;;;;;13.71;54.07;102377.34;5066551;28;20470;-66
2022/10/07 01:55:32;;;;;;;4.40;2.83;;;;;;;13.67;54.08;102378.63;5066579;28;20390;-65
2022/10/07 02:00:00;;;;;;;3.85;2.80;;;;;;;13.69;54.21;102380.16;5068202;28;20764;-67
2022/10/07 02:02:50;;;;;;;3.10;2.80;;;;;;;13.70;54.13;102381.84;5032626;28;20412;-66
2022/10/07 02:05:30;;;;;;;6.63;3.00;;;;;;;13.70;54.45;102386.31;5046580;28;20381;-67
2022/10/07 02:08:32;;;;;;;4.38;3.08;;;;;;;13.69;54.28;102379.31;5033427;28;20422;-66
2022/10/07 02:13:49;;;;;;;7.30;3.15;;;;;;;13.68;54.11;102385.63;5097061;27;20471;-65
2022/10/07 02:16:18;;;;;;;3.60;2.80;;;;;;;13.65;54.04;102392.09;5086409;28;20445;-66
2022/10/07 02:18:48;;;;;;;5.65;2.90;;;;;;;13.65;54.30;102401.91;5074633;28;20388;-66
2022/10/07 02:23:39;;;;;;;3.78;3.05;;;;;;;13.61;54.38;102398.69;5074326;27;2059914;-65
2022/10/07 02:26:07;;;;;;;4.97;3.10;;;;;;;13.57;54.10;102400.00;5144070;27;20389;-66
2022/10/07 02:28:34;;;;;;;4.85;3.10;;;;;;;13.58;54.36;102402.50;5148176;27;20400;-67
2022/10/07 02:31:02;;;;;;;3.55;3.03;;;;;;;13.58;54.17;102407.00;5133699;27;20379;-67
2022/10/07 02:33:57;;;;;;;6.40;4.03;;;;;;;13.59;54.36;102408.66;5095159;27;20938;-66
2022/10/07 02:38:28;;;;;;;4.03;3.15;;;;;;;13.54;54.47;102408.25;5058855;28;20826;-66
2022/10/07 02:41:30;;;;;;;4.50;3.37;;;;;;;13.48;54.40;102406.19;5046624;28;20460;-65
2022/10/07 02:44:15;;;;;;;6.03;3.38;;;;;;;13.46;54.49;102406.34;5034331;28;20487;-65
2022/10/07 02:46:50;;;;;;;7.28;3.47;;;;;;;13.41;54.46;102410.44;5014280;28;20474;-65
2022/10/07 02:49:20;;;;;;;6.50;3.42;;;;;;;13.42;55.08;102412.13;5026579;28;20395;-65
2022/10/07 02:52:05;;;;;;;5.53;4.10;;;;;;;13.40;55.39;102404.28;5067477;27;20926;-66
2022/10/07 02:57:04;;;;;;;4.95;3.35;;;;;;;13.36;55.26;102409.06;5089473;27;20461;-65
2022/10/07 03:02:00;;;;;;;10.15;4.53;;;;;;;13.35;55.38;102409.22;5091842;27;20826;-66
2022/10/07 03:04:25;;;;;;;7.65;4.72;;;;;;;13.35;55.60;102418.03;5066926;28;20396;-65
2022/10/07 03:09:15;;;;;;;6.63;5.13;;;;;;;13.32;55.58;102415.66;5090541;27;20927;-67
2022/10/07 03:12:01;;;;;;;10.20;5.20;;;;;;;13.33;55.86;102416.50;5100371;27;20402;-65
2022/10/07 03:14:26;;;;;;;6.30;5.03;;;;;;;13.30;55.97;102420.25;5073592;28;20465;-65
2022/10/07 03:16:52;;;;;;;9.70;5.50;;;;;;;13.27;56.10;102420.56;5070042;28;20775;-65
2022/10/07 03:19:17;;;;;;;7.13;5.10;;;;;;;13.31;56.25;102416.66;5077274;28;20376;-66
2022/10/07 03:21:43;;;;;;;5.30;4.73;;;;;;;13.29;55.76;102415.06;5084874;28;20378;-65
2022/10/07 03:24:08;;;;;;;7.03;4.30;;;;;;;13.27;55.50;102415.25;5079161;28;20764;-66
2022/10/07 03:26:34;;;;;;;7.47;4.40;;;;;;;13.22;55.61;102409.50;5075671;28;20770;-67
2022/10/07 03:29:00;;;;;;;6.93;4.43;;;;;;;13.28;55.48;102421.41;5075945;28;20469;-66
2022/10/07 03:31:27;;;;;;;6.20;4.90;;;;;;;13.28;55.37;102422.22;5086549;28;20421;-66
2022/10/07 03:33:56;;;;;;;6.88;4.45;;;;;;;13.26;55.65;102426.88;5072406;28;20410;-67
2022/10/07 03:36:23;;;;;;;6.60;4.00;;;;;;;13.22;55.42;102421.97;5085084;28;20425;-67
2022/10/07 03:38:49;;;;;;;12.43;4.32;;;;;;;13.16;55.32;102418.94;5081198;28;20384;-66
2022/10/07 03:41:16;;;;;;;7.13;3.63;;;;;;;13.17;55.06;102414.44;5076902;28;20378;-66
2022/10/07 03:43:42;;;;;;;5.22;3.40;;;;;;;13.20;54.73;102419.47;5075577;28;20434;-66
2022/10/07 03:46:08;;;;;;;5.22;3.13;;;;;;;13.14;54.72;102412.06;5079926;28;20390;-66
2022/10/07 03:48:33;;;;;;;11.20;3.37;;;;;;;13.12;54.71;102422.00;5085089;28;20378;-67
2022/10/07 03:50:59;;;;;;;9.47;3.60;;;;;;;13.09;54.63;102431.13;5085120;28;20410;-67
2022/10/07 03:53:26;;;;;;;5.68;3.15;;;;;;;13.07;54.99;102426.91;5075187;28;20382;-66
2022/10/07 03:55:52;;;;;;;4.60;3.20;;;;;;;12.99;54.77;102428.47;5085659;28;20390;-66
2022/10/07 03:59:27;;;;;;;9.32;4.38;;;;;;;12.78;55.19;102441.13;5063327;27;20412;-67
2022/10/07 04:04:06;;;;;;;6.93;4.25;;;;;;;12.48;55.72;102437.66;5087498;27;20432;-66
2022/10/07 04:07:48;;;;;;;4.30;3.90;;;;;;;12.50;55.80;102446.34;5041736;28;20763;-66
2022/10/07 04:10:15;;;;;;;5.50;3.88;;;;;;;12.47;55.66;102437.81;5026101;28;20801;-66
2022/10/07 04:12:43;;;;;;;6.78;4.30;;;;;;;12.49;55.74;102446.47;5023866;28;20399;-67
2022/10/07 04:15:12;;;;;;;6.40;4.20;;;;;;;12.55;55.52;102444.09;5017895;28;20775;-66
2022/10/07 04:17:39;;;;;;;7.82;4.68;;;;;;;12.61;55.55;102440.88;5026153;28;20426;-66
2022/10/07 04:20:05;;;;;;;9.23;4.80;;;;;;;12.65;55.49;102440.59;5025736;28;20411;-67
2022/10/07 04:22:31;;;;;;;8.15;4.90;;;;;;;12.65;55.26;102440.59;5026169;28;20402;-67
2022/10/07 04:27:41;;;;;;;7.38;4.43;;;;;;;12.70;55.35;102447.16;5021515;28;20430;-67
2022/10/07 04:30:07;;;;;;;7.40;4.50;;;;;;;12.72;55.13;102452.34;5025534;28;20403;-67
2022/10/07 04:32:33;;;;;;;7.73;4.17;;;;;;;12.69;54.80;102449.97;5019089;28;20390;-66
2022/10/07 04:35:02;;;;;;;9.77;4.23;;;;;;;12.69;54.92;102456.13;5019219;28;20390;-66
2022/10/07 04:37:28;;;;;;;10.43;4.73;;;;;;;12.67;55.06;102455.41;5025990;28;20395;-66
2022/10/07 04:39:54;;;;;;;12.10;5.00;;;;;;;12.70;55.01;102454.31;5026195;28;20387;-65
2022/10/07 04:45:05;;;;;;;9.32;4.40;;;;;;;12.85;54.45;102457.38;5013833;28;20391;-66
2022/10/07 04:47:33;;;;;;;13.50;5.35;;;;;;;13.00;54.11;102464.78;5025821;28;20411;-65
2022/10/07 04:50:37;;;;;;;9.57;4.80;;;;;;;13.20;53.86;102468.25;5094786;27;20406;-66
2022/10/07 04:53:05;;;;;;;7.90;4.35;;;;;;;13.31;53.53;102471.75;5075852;28;20394;-65
2022/10/07 04:55:36;;;;;;;6.15;3.90;;;;;;;13.37;53.22;102466.66;5076524;28;20378;-65
2022/10/07 04:58:01;;;;;;;5.57;3.85;;;;;;;13.51;52.90;102480.53;5076051;28;20391;-65
2022/10/07 05:00:27;;;;;;;5.90;4.00;;;;;;;13.67;52.43;102470.06;5086525;28;20426;-66
2022/10/07 05:02:53;;;;;;;12.35;4.45;;;;;;;13.79;52.13;102468.03;5082925;28;20389;-65
2022/10/07 05:05:18;;;;;;;9.13;5.50;;;;;;;13.96;51.43;102477.09;5075742;28;20378;-65
2022/10/07 05:07:50;;;;;;;11.63;6.80;;;;;;;14.07;51.21;102466.19;5081603;28;20436;-65
2022/10/07 05:10:16;;;;;;;19.08;9.00;;;;;;;14.20;51.37;102467.66;5077186;28;20487;-65
2022/10/07 05:12:41;;;;;;;18.77;9.75;;;;;;;14.26;50.89;102473.25;5079969;28;20802;-65
2022/10/07 05:15:07;;;;;;;16.60;9.50;;;;;;;14.28;51.06;102471.25;5077326;28;20382;-66
2022/10/07 05:18:17;;;;;;;14.00;9.30;;;;;;;14.35;50.77;102474.19;5090696;27;20406;-66
2022/10/07 05:20:45;;;;;;;21.25;9.48;;;;;;;14.51;50.28;102474.31;5077833;28;20394;-65
2022/10/07 05:23:11;;;;;;;17.67;8.82;;;;;;;14.68;50.03;102477.16;5081337;28;20760;-66
2022/10/07 05:25:37;;;;;;;17.48;9.48;;;;;;;14.82;49.72;102481.97;5077284;28;20389;-66
2022/10/07 05:28:02;;;;;;;22.23;10.23;;;;;;;15.03;48.99;102486.09;5081492;28;20544;-66
2022/10/07 05:30:28;;;;;;;23.10;10.18;;;;;;;15.20;48.60;102479.06;5077814;28;20939;-66
2022/10/07 05:32:54;;;;;;;23.48;11.23;;;;;;;15.38;48.27;102482.50;5081318;28;20412;-66
2022/10/07 05:35:20;;;;;;;24.63;9.48;;;;;;;15.58;47.84;102487.63;5086569;28;20374;-66
2022/10/07 05:37:47;;;;;;;19.60;9.10;;;;;;;15.80;47.22;102488.91;5086349;28;20796;-66
2022/10/07 05:40:12;;;;;;;17.88;9.73;;;;;;;15.94;47.10;102485.63;5086493;28;20919;-66
2022/10/07 05:42:38;;;;;;;19.90;10.40;;;;;;;16.13;46.57;102487.16;5084699;28;20386;-66
2022/10/07 05:45:04;;;;;;;19.67;10.27;;;;;;;16.27;46.26;102491.06;5074181;28;20753;-66
2022/10/07 05:47:32;;;;;;;21.27;10.50;;;;;;;16.42;46.07;102489.44;5086194;28;20443;-66
2022/10/07 05:49:58;;;;;;;17.90;10.10;;;;;;;16.56;45.66;102497.78;5086232;28;20386;-66
2022/10/07 05:52:23;;;;;;;18.83;9.98;;;;;;;16.68;45.21;102499.16;5074178;28;20441;-65
2022/10/07 05:54:49;;;;;;;19.58;9.52;;;;;;;16.72;45.04;102500.47;5066004;28;20376;-66
2022/10/07 05:57:15;;;;;;;18.90;10.10;;;;;;;16.81;45.10;102501.31;5066154;28;20412;-66
2022/10/07 05:59:41;;;;;;;17.80;10.47;;;;;;;17.12;44.63;102508.69;5082056;28;20466;-66
2022/10/07 06:02:13;;;;;;;22.50;10.95;;;;;;;17.46;44.30;102508.47;5077834;28;20482;-66
2022/10/07 06:04:38;;;;;;;17.27;9.90;;;;;;;17.71;43.42;102505.72;5066545;28;20437;-67
2022/10/07 06:13:06;;;;;;;19.10;10.50;;;;;;;18.31;42.54;102512.31;5096475;27;20463;-66
2022/10/07 06:14:28;;;;;;;12.93;5.88;;;;;;;18.96;41.47;102516.41;5077398;28;20495;-66
2022/10/07 06:16:54;;;;;;;13.52;5.50;;;;;;;19.09;41.32;102524.69;5086369;28;20388;-66
2022/10/07 06:19:22;;;;;;;14.67;5.13;;;;;;;19.27;40.92;102513.56;5086621;28;20751;-66
2022/10/07 06:21:49;;;;;;;10.85;4.78;;;;;;;19.63;40.60;102515.53;5086771;28;20414;-66
2022/10/07 06:24:30;;;;;;;8.55;4.50;;;;;;;19.90;40.24;102525.84;5056678;28;20459;-66
2022/10/07 06:26:55;;;;;;;10.95;4.47;;;;;;;20.22;39.69;102525.41;5046697;28;20909;-66
2022/10/07 06:29:21;;;;;;;7.75;4.05;;;;;;;20.43;39.45;102524.59;5032316;28;20402;-65
2022/10/07 06:31:46;;;;;;;9.60;3.70;;;;;;;20.65;38.99;102519.22;5039985;28;20407;-65
2022/10/07 06:34:12;;;;;;;10.57;4.20;;;;;;;20.73;39.04;102520.97;5025941;28;20379;-66
2022/10/07 06:36:37;;;;;;;10.37;4.50;;;;;;;20.93;38.74;102519.28;5026268;28;20392;-66
2022/10/07 06:40:23;;;;;;;7.70;4.28;;;;;;;21.05;38.50;102513.34;5088335;27;20410;-65
2022/10/07 06:42:49;;;;;;;5.80;3.43;;;;;;;21.13;38.64;102510.50;5080270;28;20456;-64
2022/10/07 06:45:24;;;;;;;5.20;3.30;;;;;;;21.01;38.86;102523.69;5088376;27;20414;-65
2022/10/07 06:47:51;;;;;;;4.80;3.30;;;;;;;20.86;39.07;102517.56;5085375;28;20394;-65
2022/10/07 06:50:17;;;;;;;6.10;3.05;;;;;;;20.96;39.09;102521.59;5074968;28;20413;-65
2022/10/07 06:52:43;;;;;;;7.65;3.10;;;;;;;20.93;39.08;102529.25;5085817;28;20418;-67
2022/10/07 06:55:08;;;;;;;6.57;3.40;;;;;;;20.86;39.29;102521.09;5080280;28;21310;-65
2022/10/07 06:57:34;;;;;;;5.45;3.20;;;;;;;20.85;39.27;102521.28;5078441;28;20428;-66
2022/10/07 07:00:00;;;;;;;5.33;3.57;;;;;;;20.95;39.33;102519.91;5081188;28;20452;-66
2022/10/07 07:02:29;;;;;;;4.88;3.50;;;;;;;21.11;39.22;102521.50;5084766;28;20394;-67
2022/10/07 07:04:56;;;;;;;8.95;4.28;;;;;;;21.12;39.31;102527.72;5084892;28;20410;-66
2022/10/07 07:07:23;;;;;;;7.68;3.80;;;;;;;21.16;39.22;102527.13;5081157;28;21280;-66
2022/10/07 07:09:51;;;;;;;8.55;3.90;;;;;;;21.10;39.32;102527.09;5084519;28;20742;-67
2022/10/07 07:14:47;;;;;;;9.18;4.60;;;;;;;20.91;39.62;102518.66;5060473;27;2050553;-66
2022/10/07 07:17:12;;;;;;;9.30;4.50;;;;;;;20.83;39.70;102524.16;5126829;28;20399;-65
2022/10/07 07:19:37;;;;;;;7.97;5.10;;;;;;;20.72;40.04;102527.38;5126928;28;20379;-64
2022/10/07 07:22:04;;;;;;;9.30;5.40;;;;;;;20.68;40.16;102520.72;5125681;28;20379;-64
2022/10/07 07:24:29;;;;;;;7.80;5.00;;;;;;;20.85;39.81;102518.59;5126286;28;20390;-64
2022/10/07 07:26:55;;;;;;;9.43;5.40;;;;;;;20.87;39.95;102521.91;5126367;28;20761;-65
2022/10/07 07:29:20;;;;;;;10.20;5.80;;;;;;;20.89;39.99;102518.00;5106760;28;20386;-66
2022/10/07 07:31:48;;;;;;;9.67;5.50;;;;;;;20.84;39.90;102519.63;5126045;28;20902;-66
2022/10/07 07:34:14;;;;;;;9.43;6.68;;;;;;;20.93;39.98;102513.06;5126272;28;20402;-65
2022/10/07 07:36:44;;;;;;;10.45;5.80;;;;;;;20.93;39.49;102511.19;5125760;28;20443;-65
2022/10/07 07:39:13;;;;;;;9.30;5.53;;;;;;;20.84;39.78;102506.16;5122004;28;20442;-64
2022/10/07 07:41:44;;;;;;;11.80;6.00;;;;;;;20.87;39.65;102503.91;5123783;28;20435;-65
2022/10/07 07:44:12;;;;;;;11.65;5.85;;;;;;;20.83;39.90;102504.47;5120405;28;20375;-64
2022/10/07 07:46:40;;;;;;;12.88;6.97;;;;;;;20.99;39.45;102506.88;5124093;28;20378;-64
2022/10/07 07:49:09;;;;;;;14.48;6.55;;;;;;;20.78;39.65;102510.47;5126470;28;20378;-65
2022/10/07 07:51:35;;;;;;;10.20;5.88;;;;;;;20.85;39.64;102510.50;5125532;28;20424;-67
2022/10/07 07:54:01;;;;;;;12.95;5.90;;;;;;;21.03;39.81;102505.47;5107980;28;20599;-64
2022/10/07 07:56:32;;;;;;;9.40;6.30;;;;;;;21.14;39.26;102502.22;5126161;28;20977;-65
2022/10/07 08:01:18;;;;;;;9.63;6.50;;;;;;;21.26;39.09;102507.06;5048454;28;20406;-64
2022/10/07 08:03:45;;;;;;;11.27;6.90;;;;;;;21.26;39.07;102515.16;5025914;28;20469;-67
2022/10/07 08:06:13;;;;;;;10.18;6.43;;;;;;;21.21;39.10;102507.66;5026047;28;20401;-64
2022/10/07 08:10:15;;;;;;;8.23;5.80;;;;;;;21.51;38.88;102518.25;5046132;28;20439;-67
2022/10/07 08:12:42;;;;;;;7.95;6.18;;;;;;;21.30;39.48;102506.50;5026626;28;20426;-64
2022/10/07 08:16:03;;;;;;;9.18;6.10;;;;;;;21.22;39.76;102506.63;5089445;27;20408;-64
2022/10/07 08:19:28;;;;;;;10.35;6.07;;;;;;;21.29;39.61;102506.69;5084165;27;20406;-64
2022/10/07 08:21:54;;;;;;;8.75;6.13;;;;;;;21.17;39.97;102511.78;5066789;28;21004;-65
2022/10/07 08:24:21;;;;;;;11.37;6.30;;;;;;;20.81;40.60;102505.50;5073739;28;20412;-65
2022/10/07 08:26:47;;;;;;;9.60;6.40;;;;;;;20.77;40.66;102503.38;5067579;28;20384;-64
2022/10/07 08:29:14;;;;;;;11.87;6.27;;;;;;;20.84;40.63;102498.06;5071814;28;20390;-65
2022/10/07 08:31:41;;;;;;;10.90;6.20;;;;;;;20.77;40.89;102498.81;5073104;28;20391;-65
2022/10/07 08:34:07;;;;;;;10.57;6.07;;;;;;;20.81;40.65;102497.44;5078060;28;20774;-64
2022/10/07 08:36:32;;;;;;;8.47;6.30;;;;;;;20.54;40.99;102504.38;5084374;28;20861;-65
2022/10/07 08:38:59;;;;;;;9.00;6.10;;;;;;;20.49;41.21;102496.06;5077819;28;20414;-65
2022/10/07 08:43:48;;;;;;;7.57;6.00;;;;;;;20.69;40.90;102487.34;5074896;27;20458;-64
2022/10/07 08:46:30;;;;;;;11.35;5.95;;;;;;;20.46;41.43;102487.53;5066012;28;20396;-63
2022/10/07 08:49:08;;;;;;;9.13;6.30;;;;;;;20.57;41.34;102493.22;5065978;28;20419;-66
2022/10/07 08:52:03;;;;;;;7.40;5.90;;;;;;;20.41;41.82;102488.09;5065395;28;20395;-66
2022/10/07 08:54:29;;;;;;;9.47;6.57;;;;;;;20.37;42.21;102486.84;5038105;28;20396;-65
2022/10/07 08:57:03;;;;;;;8.73;5.82;;;;;;;20.51;42.15;102477.84;5065724;28;20861;-66
2022/10/07 08:59:31;;;;;;;8.98;5.50;;;;;;;20.58;41.97;102477.88;5066318;28;20398;-66
2022/10/07 09:02:18;;;;;;;7.72;5.40;;;;;;;20.54;42.21;102479.31;5065128;28;20408;-68
2022/10/07 09:04:56;;;;;;;8.23;5.23;;;;;;;20.74;41.83;102474.13;5064232;28;20455;-68
2022/10/07 09:07:30;;;;;;;11.47;5.53;;;;;;;20.61;42.23;102477.53;5060842;28;20388;-67
2022/10/07 09:10:08;;;;;;;7.88;5.03;;;;;;;20.46;42.38;102479.47;5065589;28;20474;-67
2022/10/07 09:12:52;;;;;;;9.45;4.82;;;;;;;20.61;42.27;102469.47;5054909;28;20380;-66
2022/10/07 09:15:38;;;;;;;6.30;5.00;;;;;;;20.86;41.60;102459.09;5063762;28;20478;-68
2022/10/07 09:18:15;;;;;;;10.88;5.32;;;;;;;21.11;41.44;102464.03;5055517;28;20396;-67
2022/10/07 09:20:44;;;;;;;7.85;5.20;;;;;;;20.91;41.48;102455.81;5065629;28;20435;-67
2022/10/07 09:23:14;;;;;;;7.40;5.30;;;;;;;20.89;41.74;102463.28;5056734;28;20407;-66
2022/10/07 09:25:40;;;;;;;6.10;4.95;;;;;;;20.91;41.86;102445.03;5065823;28;20455;-66
2022/10/07 09:28:15;;;;;;;11.23;5.05;;;;;;;20.86;42.07;102444.78;5056645;28;20383;-66
2022/10/07 09:31:23;;;;;;;9.05;5.28;;;;;;;20.89;42.12;102442.53;5082768;27;20411;-66
2022/10/07 09:33:51;;;;;;;7.18;5.30;;;;;;;20.91;42.09;102436.94;5066457;28;20435;-65
2022/10/07 09:36:18;;;;;;;7.10;5.18;;;;;;;21.06;41.85;102437.66;5066600;28;20376;-65
2022/10/07 09:38:48;;;;;;;6.90;4.97;;;;;;;21.02;41.56;102440.97;5066561;28;20441;-66
2022/10/07 09:41:34;;;;;;;8.48;5.28;;;;;;;20.95;41.71;102436.34;5066040;28;20380;-66
2022/10/07 09:44:14;;;;;;;10.30;5.43;;;;;;;20.80;41.73;102439.16;5066248;28;20379;-67
2022/10/07 09:48:06;;;;;;;7.95;5.10;;;;;;;20.80;41.78;102428.38;5082678;27;20758;-66
2022/10/07 09:50:40;;;;;;;7.50;5.05;;;;;;;20.82;41.75;102425.47;5055553;28;20401;-66
2022/10/07 09:53:29;;;;;;;9.30;4.97;;;;;;;20.73;42.10;102427.50;5046523;28;20393;-65
2022/10/07 09:55:54;;;;;;;6.95;5.03;;;;;;;20.80;41.87;102419.47;5046674;28;20398;-67
2022/10/07 09:58:26;;;;;;;8.23;5.10;;;;;;;20.81;41.99;102421.09;5046495;28;20378;-65
2022/10/07 10:00:54;;;;;;;11.68;5.72;;;;;;;20.80;42.10;102416.75;5058405;28;20437;-66
2022/10/07 10:03:27;;;;;;;7.25;5.15;;;;;;;20.90;42.02;102413.72;5048213;28;20505;-66
2022/10/07 10:05:56;;;;;;;6.93;5.13;;;;;;;20.99;41.70;102421.47;5061236;28;20801;-65
2022/10/07 10:08:27;;;;;;;10.30;6.10;;;;;;;20.96;41.96;102411.06;5066249;28;20430;-68
2022/10/07 10:10:55;;;;;;;5.20;4.38;;;;;;;21.11;41.23;102405.53;5065230;28;20461;-65
2022/10/07 10:13:38;;;;;;;10.73;4.95;;;;;;;21.11;40.54;102410.13;5081085;28;20407;-65
2022/10/07 10:16:26;;;;;;;6.78;4.80;;;;;;;21.11;40.57;102407.41;5049540;28;20469;-65
2022/10/07 10:20:31;;;;;;;7.43;4.85;;;;;;;21.11;40.92;102402.03;5095238;27;20456;-70
2022/10/07 10:22:59;;;;;;;7.63;5.17;;;;;;;21.06;41.26;102396.38;5085396;28;20420;-65
2022/10/07 10:28:57;;;;;;;7.73;5.07;;;;;;;21.29;41.12;102388.00;5055877;28;20910;-65
2022/10/07 10:31:56;;;;;;;8.13;5.10;;;;;;;21.49;41.32;102383.53;5074049;28;20391;-66
2022/10/07 10:34:52;;;;;;;5.63;4.87;;;;;;;21.29;41.04;102380.75;5080608;28;20380;-66
2022/10/07 10:37:22;;;;;;;7.25;4.22;;;;;;;21.31;41.06;102373.28;5084868;28;20432;-66
2022/10/07 10:40:05;;;;;;;7.47;5.20;;;;;;;21.40;40.65;102382.03;5086474;28;20414;-65
2022/10/07 10:43:24;;;;;;;8.38;4.47;;;;;;;21.35;39.97;102366.44;5050885;28;20490;-65
2022/10/07 10:46:04;;;;;;;7.70;3.95;;;;;;;21.47;39.37;102366.72;5026940;28;20395;-66
2022/10/07 10:48:43;;;;;;;7.25;3.50;;;;;;;21.61;38.49;102355.97;5026611;28;20386;-67
2022/10/07 10:51:31;;;;;;;8.65;3.67;;;;;;;21.57;37.64;102356.38;5026247;28;20493;-66
2022/10/07 10:55:23;;;;;;;7.22;3.70;;;;;;;21.61;36.85;102346.03;5100589;27;20417;-65
2022/10/07 10:58:14;;;;;;;6.57;4.10;;;;;;;21.66;36.91;102338.16;5042953;28;20448;-66
2022/10/07 11:05:27;;;;;;;6.70;4.10;;;;;;;21.67;36.92;102326.31;5087087;27;20460;-65
2022/10/07 11:08:00;;;;;;;7.57;4.10;;;;;;;21.78;37.02;102324.88;5086577;28;20394;-65
2022/10/07 11:10:54;;;;;;;7.17;4.07;;;;;;;21.72;36.59;102307.63;5066520;28;20889;-65
2022/10/07 11:13:39;;;;;;;7.40;4.35;;;;;;;21.78;36.52;102311.38;5066540;28;20424;-66
2022/10/07 11:17:00;;;;;;;10.20;4.38;;;;;;;21.85;36.37;102300.59;5049882;28;20410;-65
2022/10/07 11:21:47;;;;;;;5.95;3.85;;;;;;;22.09;36.04;102285.63;5068120;27;20408;-65
2022/10/07 11:24:39;;;;;;;11.43;4.30;;;;;;;22.18;36.60;102288.94;5046437;28;20441;-65
2022/10/07 11:27:19;;;;;;;5.10;3.80;;;;;;;22.12;36.26;102279.81;5041741;28;20815;-65
2022/10/07 11:29:53;;;;;;;6.80;4.00;;;;;;;22.14;35.75;102280.44;5039232;28;20377;-65
2022/10/07 11:32:25;;;;;;;4.85;3.50;;;;;;;22.24;35.84;102278.16;5046622;28;20872;-66
2022/10/07 11:34:58;;;;;;;6.15;3.72;;;;;;;22.17;35.78;102279.19;5046226;28;20381;-65
2022/10/07 11:37:36;;;;;;;5.15;3.55;;;;;;;22.15;35.07;102269.44;5046202;28;20396;-66
2022/10/07 11:40:05;;;;;;;5.45;3.50;;;;;;;22.22;35.45;102264.03;5046443;28;20413;-66
2022/10/07 11:42:39;;;;;;;5.27;3.73;;;;;;;22.28;35.24;102263.19;5045712;28;20776;-67
2022/10/07 11:45:15;;;;;;;7.25;3.50;;;;;;;22.30;35.02;102252.19;5046402;28;20374;-65
2022/10/07 11:47:48;;;;;;;5.75;3.58;;;;;;;22.29;35.11;102245.97;5046392;28;20389;-65
2022/10/07 11:50:23;;;;;;;5.35;3.03;;;;;;;22.36;34.40;102242.41;5046384;28;20374;-65
2022/10/07 11:52:52;;;;;;;7.68;3.45;;;;;;;22.31;34.30;102246.56;5046070;28;20458;-65
2022/10/07 11:55:26;;;;;;;5.40;2.97;;;;;;;22.30;34.17;102236.81;5046372;28;20378;-66
2022/10/07 11:59:02;;;;;;;4.55;3.00;;;;;;;22.29;34.38;102240.56;5088553;27;20425;-66
2022/10/07 12:01:27;;;;;;;5.20;2.72;;;;;;;22.23;34.03;102229.72;5066295;28;21214;-66
2022/10/07 12:04:24;;;;;;;5.20;2.73;;;;;;;22.30;34.32;102235.97;5065841;28;20534;-69
2022/10/07 12:07:27;;;;;;;7.85;3.05;;;;;;;22.40;34.26;102230.13;5066142;28;20510;-67
2022/10/07 12:10:04;;;;;;;4.43;2.70;;;;;;;22.38;33.27;102227.63;5066306;28;20388;-66
2022/10/07 12:12:45;;;;;;;7.17;3.00;;;;;;;22.34;33.60;102212.91;5066100;28;20475;-67
2022/10/07 12:15:41;;;;;;;5.38;3.00;;;;;;;22.42;33.79;102219.94;5066402;28;20403;-66
2022/10/07 12:18:06;;;;;;;6.00;3.28;;;;;;;22.53;33.94;102213.88;5066433;28;20908;-67
2022/10/07 12:20:45;;;;;;;5.70;3.00;;;;;;;22.60;33.59;102212.00;5065900;28;20388;-67
2022/10/07 12:23:35;;;;;;;7.20;3.63;;;;;;;22.64;33.56;102212.41;5066366;28;20372;-67
2022/10/07 12:26:02;;;;;;;6.28;3.83;;;;;;;22.61;33.36;102210.94;5051417;28;20400;-67
2022/10/07 12:28:33;;;;;;;7.05;3.50;;;;;;;22.61;33.08;102207.41;5065787;28;20399;-68
2022/10/07 12:31:04;;;;;;;6.20;3.30;;;;;;;22.67;33.32;102207.38;5066222;28;20403;-66
2022/10/07 12:33:41;;;;;;;6.40;3.40;;;;;;;22.67;33.48;102206.53;5065578;28;20426;-66
2022/10/07 12:36:25;;;;;;;7.03;4.05;;;;;;;22.82;33.66;102190.06;5066158;28;20380;-67
2022/10/07 12:38:56;;;;;;;6.68;3.38;;;;;;;22.87;33.32;102198.38;5064462;28;20471;-67
2022/10/07 12:41:29;;;;;;;8.32;3.33;;;;;;;22.90;33.84;102197.91;5065781;28;20388;-67
2022/10/07 12:44:17;;;;;;;6.43;3.30;;;;;;;22.83;34.17;102203.38;5065020;28;20379;-66
2022/10/07 12:47:09;;;;;;;6.10;3.22;;;;;;;22.88;34.13;102191.88;5090178;27;20411;-66
2022/10/07 12:49:39;;;;;;;7.00;3.15;;;;;;;22.94;33.98;102191.03;5084834;28;20404;-66
2022/10/07 12:52:18;;;;;;;6.80;3.43;;;;;;;22.85;33.79;102187.75;5088192;28;20481;-65
2022/10/07 12:54:52;;;;;;;6.78;3.03;;;;;;;22.87;34.18;102179.44;5085690;28;20386;-66
2022/10/07 12:57:32;;;;;;;5.57;3.30;;;;;;;22.93;34.24;102175.03;5086779;28;20378;-65
2022/10/07 13:00:10;;;;;;;6.07;2.90;;;;;;;22.90;34.38;102170.88;5086428;28;20390;-66
2022/10/07 13:02:57;;;;;;;4.65;2.72;;;;;;;22.87;34.22;102168.63;5076736;28;20526;-65
2022/10/07 13:05:59;;;;;;;4.88;2.90;;;;;;;22.97;34.28;102163.53;5065899;28;20790;-65
2022/10/07 13:09:09;;;;;;;3.10;2.45;;;;;;;23.02;34.30;102166.44;5082142;28;20382;-66